createdAt,value
2019-06-09T00:01:43.442Z,97324.75
2019-06-09T00:04:11.465Z,97325.48
2019-06-09T00:06:37.409Z,97324.17
2019-06-09T00:09:05.119Z,97317.95
2019-06-09T00:11:30.959Z,97329.34
2019-06-09T00:13:57.727Z,97322.42
2019-06-09T00:16:27.151Z,97323.63
2019-06-09T00:18:53.462Z,97321.88
2019-06-09T00:21:19.274Z,97315.97
2019-06-09T00:23:47.713Z,97323.44
2019-06-09T00:26:13.086Z,97325.66
2019-06-09T00:28:39.257Z,97330.86
2019-06-09T00:31:08.738Z,97329.02
2019-06-09T00:33:37.118Z,97334.67
2019-06-09T00:36:02.586Z,97315.02
2019-06-09T00:38:28.390Z,97329.32
2019-06-09T00:40:54.183Z,97319.17
2019-06-09T00:43:23.225Z,97319.70
2019-06-09T00:45:49.047Z,97337.02
2019-06-09T00:48:18.110Z,97332.30
2019-06-09T00:50:43.883Z,97342.28
2019-06-09T00:53:13.994Z,97333.89
2019-06-09T00:55:40.406Z,97342.23
2019-06-09T00:58:10.712Z,97331.80
2019-06-09T01:00:34.323Z,97340.34
2019-06-09T01:03:00.827Z,97335.86
2019-06-09T01:05:27.950Z,97332.73
2019-06-09T01:07:54.229Z,97337.09
2019-06-09T01:10:21.146Z,97334.19
2019-06-09T01:12:47.945Z,97322.37
2019-06-09T01:15:15.087Z,97315.25
2019-06-09T01:17:42.298Z,97324.68
2019-06-09T01:20:11.131Z,97325.61
2019-06-09T01:22:37.491Z,97321.11
2019-06-09T01:25:09.226Z,97321.26
2019-06-09T01:27:37.268Z,97310.16
2019-06-09T01:30:13.779Z,97309.37
2019-06-09T01:32:38.361Z,97304.03
2019-06-09T01:35:04.418Z,97304.44
2019-06-09T01:37:30.237Z,97303.80
2019-06-09T01:39:57.785Z,97313.79
2019-06-09T01:42:23.620Z,97313.19
2019-06-09T01:45:07.399Z,97312.26
2019-06-09T01:47:20.477Z,97308.91
2019-06-09T01:49:47.791Z,97306.85
2019-06-09T01:52:14.071Z,97302.61
2019-06-09T01:54:39.809Z,97299.52
2019-06-09T01:57:07.979Z,97301.00
2019-06-09T01:59:34.290Z,97295.19
2019-06-09T02:02:00.441Z,97307.24
2019-06-09T02:04:27.462Z,97307.97
2019-06-09T02:06:54.327Z,97299.91
2019-06-09T02:09:22.090Z,97305.92
2019-06-09T02:11:48.358Z,97297.13
2019-06-09T02:14:14.595Z,97295.19
2019-06-09T02:16:40.411Z,97292.41
2019-06-09T02:19:08.284Z,97291.28
2019-06-09T02:21:34.923Z,97285.64
2019-06-09T02:24:00.972Z,97285.27
2019-06-09T02:26:27.937Z,97283.03
2019-06-09T02:28:53.820Z,97286.04
2019-06-09T02:31:26.415Z,97280.84
2019-06-09T02:33:54.507Z,97273.26
2019-06-09T02:36:26.622Z,97271.83
2019-06-09T02:38:44.155Z,97275.11
2019-06-09T02:41:13.219Z,97279.79
2019-06-09T02:43:38.445Z,97279.21
2019-06-09T02:46:35.920Z,97274.00
2019-06-09T02:49:03.113Z,97269.37
2019-06-09T02:51:36.007Z,97263.41
2019-06-09T02:53:57.147Z,97278.41
2019-06-09T02:56:27.205Z,97272.34
2019-06-09T02:58:51.795Z,97277.60
2019-06-09T03:01:17.822Z,97278.66
2019-06-09T03:04:00.236Z,97280.27
2019-06-09T03:06:12.518Z,97291.51
2019-06-09T03:08:43.533Z,97291.98
2019-06-09T03:11:06.755Z,97284.02
2019-06-09T03:13:39.728Z,97288.09
2019-06-09T03:16:02.877Z,97283.50
2019-06-09T03:18:35.131Z,97286.41
2019-06-09T03:20:55.995Z,97287.23
2019-06-09T03:23:24.743Z,97286.22
2019-06-09T03:25:52.453Z,97287.97
2019-06-09T03:28:17.269Z,97279.27
2019-06-09T03:31:03.503Z,97280.27
2019-06-09T03:34:07.530Z,97281.02
2019-06-09T03:36:21.938Z,97277.17
2019-06-09T03:38:18.019Z,97268.12
2019-06-09T03:40:39.429Z,97278.47
2019-06-09T03:43:03.128Z,97281.39
2019-06-09T03:45:36.631Z,97281.14
2019-06-09T03:47:57.563Z,97289.13
2019-06-09T03:50:27.834Z,97283.38
2019-06-09T03:52:52.392Z,97277.75
2019-06-09T03:55:20.827Z,97280.10
2019-06-09T03:57:46.424Z,97279.21
2019-06-09T04:00:15.284Z,97281.25
2019-06-09T04:02:44.632Z,97281.02
2019-06-09T04:05:08.216Z,97276.87
2019-06-09T04:07:39.389Z,97275.02
2019-06-09T04:10:04.258Z,97266.38
2019-06-09T04:12:38.943Z,97269.42
2019-06-09T04:14:58.058Z,97267.80
2019-06-09T04:17:24.520Z,97264.10
2019-06-09T04:19:52.342Z,97257.50
2019-06-09T04:22:18.199Z,97256.02
2019-06-09T04:24:44.569Z,97262.39
2019-06-09T04:27:12.366Z,97249.81
2019-06-09T04:29:39.511Z,97255.00
2019-06-09T04:32:06.277Z,97247.93
2019-06-09T04:34:38.375Z,97246.82
2019-06-09T04:37:03.177Z,97248.47
2019-06-09T04:39:29.738Z,97241.17
2019-06-09T04:41:55.702Z,97245.98
2019-06-09T04:44:22.527Z,97245.12
2019-06-09T04:46:51.877Z,97237.75
2019-06-09T04:49:16.421Z,97233.77
2019-06-09T04:51:44.504Z,97233.40
2019-06-09T04:54:12.538Z,97231.42
2019-06-09T04:56:42.087Z,97233.81
2019-06-09T04:59:05.421Z,97234.62
2019-06-09T05:01:39.899Z,97230.55
2019-06-09T05:04:02.051Z,97232.67
2019-06-09T05:06:41.383Z,97239.16
2019-06-09T05:08:54.670Z,97229.63
2019-06-09T05:11:23.286Z,97229.98
2019-06-09T05:13:48.724Z,97228.34
2019-06-09T05:16:14.526Z,97229.02
2019-06-09T05:18:50.395Z,97228.56
2019-06-09T05:21:11.600Z,97227.28
2019-06-09T05:23:48.698Z,97224.41
2019-06-09T05:26:12.369Z,97225.86
2019-06-09T05:28:46.529Z,97220.26
2019-06-09T05:31:06.342Z,97220.09
2019-06-09T05:33:35.850Z,97225.20
2019-06-09T05:36:03.003Z,97230.43
2019-06-09T05:38:33.783Z,97240.52
2019-06-09T05:41:02.252Z,97227.20
2019-06-09T05:43:34.028Z,97221.14
2019-06-09T05:45:58.615Z,97221.64
2019-06-09T05:48:24.777Z,97215.30
2019-06-09T05:50:50.860Z,97210.77
2019-06-09T05:53:18.932Z,97206.87
2019-06-09T05:55:44.744Z,97214.84
2019-06-09T05:58:17.912Z,97200.71
2019-06-09T06:00:45.570Z,97196.28
2019-06-09T06:03:12.027Z,97194.59
2019-06-09T06:05:37.851Z,97194.55
2019-06-09T06:08:03.671Z,97197.43
2019-06-09T06:10:31.658Z,97191.16
2019-06-09T06:12:57.221Z,97194.58
2019-06-09T06:15:23.369Z,97193.30
2019-06-09T06:17:50.964Z,97189.23
2019-06-09T06:20:17.008Z,97190.89
2019-06-09T06:22:44.049Z,97183.27
2019-06-09T06:25:13.763Z,97171.30
2019-06-09T06:27:42.158Z,97164.42
2019-06-09T06:30:07.841Z,97157.98
2019-06-09T06:32:34.158Z,97152.26
2019-06-09T06:35:01.503Z,97143.84
2019-06-09T06:37:36.121Z,97143.59
2019-06-09T06:39:55.266Z,97143.38
2019-06-09T06:42:21.242Z,97157.00
2019-06-09T06:44:52.174Z,97159.14
2019-06-09T06:47:17.867Z,97154.16
2019-06-09T06:49:44.242Z,97141.16
2019-06-09T06:52:12.500Z,97127.03
2019-06-09T06:54:38.957Z,97125.31
2019-06-09T06:57:04.835Z,97124.98
2019-06-09T06:59:31.688Z,97124.72
2019-06-09T07:01:57.977Z,97124.83
2019-06-09T07:04:24.084Z,97124.77
2019-06-09T07:06:53.002Z,97123.63
2019-06-09T07:09:21.368Z,97123.63
2019-06-09T07:11:48.011Z,97117.42
2019-06-09T07:14:14.619Z,97110.35
2019-06-09T07:16:42.408Z,97111.14
2019-06-09T07:19:08.459Z,97117.65
2019-06-09T07:21:34.277Z,97117.65
2019-06-09T07:24:00.585Z,97109.88
2019-06-09T07:26:26.467Z,97114.19
2019-06-09T07:28:54.401Z,97113.16
2019-06-09T07:31:20.984Z,97110.73
2019-06-09T07:33:49.270Z,97100.75
2019-06-09T07:36:14.634Z,97099.81
2019-06-09T07:38:45.165Z,97100.37
2019-06-09T07:41:10.870Z,97101.56
2019-06-09T07:43:37.103Z,97090.52
2019-06-09T07:46:03.323Z,97078.16
2019-06-09T07:48:31.833Z,97079.95
2019-06-09T07:50:58.041Z,97078.62
2019-06-09T07:53:26.928Z,97089.52
2019-06-09T07:55:54.228Z,97083.61
2019-06-09T07:58:21.689Z,97078.61
2019-06-09T08:00:47.880Z,97081.42
2019-06-09T08:03:13.681Z,97084.14
2019-06-09T08:05:41.028Z,97083.52
2019-06-09T08:08:07.487Z,97081.05
2019-06-09T08:10:33.297Z,97069.34
2019-06-09T08:13:01.516Z,97066.22
2019-06-09T08:15:26.886Z,97059.27
2019-06-09T08:17:53.516Z,97059.95
2019-06-09T08:20:22.165Z,97064.78
2019-06-09T08:22:48.551Z,97056.34
2019-06-09T08:25:17.433Z,97058.12
2019-06-09T08:27:45.489Z,97060.39
2019-06-09T08:30:13.195Z,97050.87
2019-06-09T08:32:42.067Z,97036.05
2019-06-09T08:35:21.279Z,97038.55
2019-06-09T08:37:37.208Z,97032.20
2019-06-09T08:40:05.304Z,97032.16
2019-06-09T08:42:32.518Z,97032.65
2019-06-09T08:44:58.614Z,97037.49
2019-06-09T08:47:24.414Z,97033.92
2019-06-09T08:49:52.758Z,97030.22
2019-06-09T08:52:18.237Z,97028.75
2019-06-09T08:54:44.710Z,97027.61
2019-06-09T08:57:11.685Z,97021.42
2019-06-09T08:59:37.502Z,97027.91
2019-06-09T09:02:03.324Z,97031.70
2019-06-09T09:04:31.197Z,97037.93
2019-06-09T09:06:56.814Z,97048.77
2019-06-09T09:09:29.555Z,97045.39
2019-06-09T09:11:53.122Z,97043.81
2019-06-09T09:14:18.339Z,97053.71
2019-06-09T09:16:44.648Z,97043.45
2019-06-09T09:19:11.244Z,97044.33
2019-06-09T09:21:37.099Z,97037.50
2019-06-09T09:24:41.636Z,97032.44
2019-06-09T09:26:31.670Z,97029.05
2019-06-09T09:28:57.582Z,97024.16
2019-06-09T09:31:23.656Z,97027.58
2019-06-09T09:33:54.739Z,97036.80
2019-06-09T09:36:20.999Z,97045.19
2019-06-09T09:38:47.801Z,97034.81
2019-06-09T09:41:13.752Z,97036.47
2019-06-09T09:43:42.802Z,97029.75
2019-06-09T09:46:10.960Z,97035.80
2019-06-09T09:48:36.624Z,97020.83
2019-06-09T09:51:02.749Z,97020.48
2019-06-09T09:53:28.836Z,97016.07
2019-06-09T09:55:56.217Z,97014.73
2019-06-09T09:58:22.617Z,97016.19
2019-06-09T10:00:48.974Z,97006.84
2019-06-09T10:03:14.900Z,97005.36
2019-06-09T10:05:43.819Z,97001.74
2019-06-09T10:08:11.642Z,96997.52
2019-06-09T10:10:37.307Z,96982.48
2019-06-09T10:13:03.278Z,96984.22
2019-06-09T10:15:32.085Z,96985.77
2019-06-09T10:17:59.578Z,96981.31
2019-06-09T10:20:27.487Z,96985.91
2019-06-09T10:22:56.733Z,96973.78
2019-06-09T10:25:23.357Z,96973.36
2019-06-09T10:27:52.553Z,96981.56
2019-06-09T10:30:16.925Z,96979.77
2019-06-09T10:32:43.104Z,96967.00
2019-06-09T10:35:10.977Z,96965.09
2019-06-09T10:37:36.870Z,96966.83
2019-06-09T10:40:16.652Z,96966.77
2019-06-09T10:42:32.531Z,96958.16
2019-06-09T10:45:00.499Z,96948.97
2019-06-09T10:47:26.041Z,96946.34
2019-06-09T10:49:52.903Z,96944.28
2019-06-09T10:52:21.029Z,96950.56
2019-06-09T10:54:47.243Z,96950.14
2019-06-09T10:57:13.432Z,96946.83
2019-06-09T10:59:40.954Z,96947.45
2019-06-09T11:02:06.840Z,96941.27
2019-06-09T11:04:32.636Z,96939.62
2019-06-09T11:07:00.299Z,96924.74
2019-06-09T11:09:26.164Z,96925.50
2019-06-09T11:11:52.622Z,96919.47
2019-06-09T11:14:20.960Z,96913.73
2019-06-09T11:16:46.603Z,96906.05
2019-06-09T11:19:13.893Z,96903.56
2019-06-09T11:21:41.005Z,96901.14
2019-06-09T11:24:07.389Z,96897.50
2019-06-09T11:26:33.410Z,96895.84
2019-06-09T11:29:03.965Z,96897.52
2019-06-09T11:31:31.386Z,96888.34
2019-06-09T11:33:58.733Z,96889.19
2019-06-09T11:36:25.224Z,96887.25
2019-06-09T11:38:54.052Z,96879.34
2019-06-09T11:41:21.537Z,96881.68
2019-06-09T11:43:47.430Z,96883.56
2019-06-09T11:46:13.250Z,96876.09
2019-06-09T11:48:41.288Z,96877.94
2019-06-09T11:51:07.077Z,96878.05
2019-06-09T11:53:32.863Z,96881.55
2019-06-09T11:55:59.868Z,96875.77
2019-06-09T11:58:29.299Z,96875.95
2019-06-09T12:00:55.805Z,96874.92
2019-06-09T12:03:22.285Z,96874.28
2019-06-09T12:05:48.183Z,96874.50
2019-06-09T12:08:14.000Z,96869.53
2019-06-09T12:10:51.263Z,96865.47
2019-06-09T12:13:11.514Z,96871.59
2019-06-09T12:15:37.444Z,96869.37
2019-06-09T12:18:05.232Z,96868.41
2019-06-09T12:20:31.369Z,96866.46
2019-06-09T12:22:58.563Z,96865.60
2019-06-09T12:25:25.029Z,96870.23
2019-06-09T12:27:51.874Z,96872.62
2019-06-09T12:30:20.800Z,96874.14
2019-06-09T12:32:46.962Z,96873.46
2019-06-09T12:35:13.878Z,96872.97
2019-06-09T12:37:41.435Z,96861.16
2019-06-09T12:40:08.637Z,96860.16
2019-06-09T12:42:35.539Z,96863.94
2019-06-09T12:45:05.015Z,96853.98
2019-06-09T12:47:31.287Z,96861.31
2019-06-09T12:49:57.408Z,96857.33
2019-06-09T12:52:23.229Z,96849.05
2019-06-09T12:54:49.345Z,96850.55
2019-06-09T12:57:15.099Z,96850.38
2019-06-09T12:59:41.437Z,96853.02
2019-06-09T13:02:07.824Z,96850.66
2019-06-09T13:04:34.959Z,96853.01
2019-06-09T13:07:02.587Z,96852.66
2019-06-09T13:09:30.780Z,96855.27
2019-06-09T13:11:56.748Z,96846.81
2019-06-09T13:14:25.662Z,96848.47
2019-06-09T13:16:51.787Z,96850.30
2019-06-09T13:19:21.766Z,96849.95
2019-06-09T13:21:46.957Z,96851.11
2019-06-09T13:24:13.077Z,96848.16
2019-06-09T13:26:40.917Z,96841.84
2019-06-09T13:29:09.706Z,96843.34
2019-06-09T13:31:35.784Z,96844.03
2019-06-09T13:34:03.459Z,96840.88
2019-06-09T13:36:31.157Z,96846.02
2019-06-09T13:38:57.060Z,96835.90
2019-06-09T13:41:22.849Z,96841.36
2019-06-09T13:43:52.754Z,96847.65
2019-06-09T13:46:19.010Z,96852.31
2019-06-09T13:48:44.462Z,96856.26
2019-06-09T13:51:11.375Z,96847.63
2019-06-09T13:53:38.231Z,96843.67
2019-06-09T13:56:05.109Z,96848.77
2019-06-09T13:58:32.071Z,96844.28
2019-06-09T14:00:57.993Z,96839.47
2019-06-09T14:03:23.802Z,96841.31
2019-06-09T14:05:54.354Z,96836.27
2019-06-09T14:08:21.273Z,96839.84
2019-06-09T14:10:47.433Z,96843.09
2019-06-09T14:13:14.878Z,96850.12
2019-06-09T14:15:41.585Z,96841.91
2019-06-09T14:18:07.675Z,96845.76
2019-06-09T14:20:33.701Z,96838.76
2019-06-09T14:23:01.236Z,96836.06
2019-06-09T14:25:27.312Z,96843.66
2019-06-09T14:27:55.865Z,96841.02
2019-06-09T14:30:22.824Z,96850.34
2019-06-09T14:32:51.297Z,96839.55
2019-06-09T14:35:17.882Z,96831.77
2019-06-09T14:37:44.658Z,96842.73
2019-06-09T14:40:16.709Z,96840.34
2019-06-09T14:42:44.204Z,96844.12
2019-06-09T14:45:15.795Z,96845.30
2019-06-09T14:47:38.820Z,96844.72
2019-06-09T14:50:06.132Z,96833.95
2019-06-09T14:52:31.961Z,96840.55
2019-06-09T14:54:58.042Z,96842.02
2019-06-09T14:57:24.096Z,96844.58
2019-06-09T14:59:51.223Z,96838.70
2019-06-09T15:02:17.673Z,96830.41
2019-06-09T15:04:43.798Z,96824.91
2019-06-09T15:07:09.894Z,96823.34
2019-06-09T15:09:35.688Z,96829.33
2019-06-09T15:12:01.758Z,96828.64
2019-06-09T15:14:30.566Z,96814.11
2019-06-09T15:16:56.660Z,96820.41
2019-06-09T15:19:25.444Z,96814.57
2019-06-09T15:21:51.319Z,96819.00
2019-06-09T15:24:18.233Z,96803.95
2019-06-09T15:26:44.847Z,96798.09
2019-06-09T15:29:11.932Z,96798.02
2019-06-09T15:31:37.871Z,96794.72
2019-06-09T15:34:03.890Z,96786.64
2019-06-09T15:36:31.674Z,96785.56
2019-06-09T15:38:57.612Z,96785.90
2019-06-09T15:41:26.157Z,96775.95
2019-06-09T15:43:53.486Z,96761.28
2019-06-09T15:46:22.091Z,96761.28
2019-06-09T15:48:47.220Z,96771.55
2019-06-09T15:51:16.123Z,96755.82
2019-06-09T15:53:42.264Z,96746.41
2019-06-09T15:56:11.072Z,96733.92
2019-06-09T15:58:37.001Z,96721.49
2019-06-09T16:01:02.806Z,96717.19
2019-06-09T16:03:31.331Z,96718.06
2019-06-09T16:05:57.202Z,96730.30
2019-06-09T16:08:25.500Z,96732.08
2019-06-09T16:10:51.420Z,96729.31
2019-06-09T16:13:21.562Z,96726.72
2019-06-09T16:15:44.923Z,96731.57
2019-06-09T16:18:10.748Z,96731.30
2019-06-09T16:20:36.527Z,96734.09
2019-06-09T16:23:05.122Z,96744.06
2019-06-09T16:25:31.343Z,96741.07
2019-06-09T16:28:01.673Z,96744.44
2019-06-09T16:30:27.652Z,96738.69
2019-06-09T16:32:54.528Z,96738.28
2019-06-09T16:35:20.903Z,96730.91
2019-06-09T16:37:46.671Z,96727.06
2019-06-09T16:40:12.663Z,96709.91
2019-06-09T16:42:38.484Z,96711.91
2019-06-09T16:45:07.405Z,96710.95
2019-06-09T16:47:33.521Z,96715.60
2019-06-09T16:50:04.765Z,96702.64
2019-06-09T16:52:33.945Z,96697.27
2019-06-09T16:55:00.644Z,96698.09
2019-06-09T16:57:27.228Z,96693.62
2019-06-09T16:59:53.760Z,96693.62
2019-06-09T17:02:22.771Z,96700.01
2019-06-09T17:04:47.278Z,96694.02
2019-06-09T17:07:32.782Z,96688.55
2019-06-09T17:09:58.682Z,96693.72
2019-06-09T17:12:25.184Z,96687.98
2019-06-09T17:14:51.269Z,96685.35
2019-06-09T17:17:17.104Z,96686.14
2019-06-09T17:19:48.052Z,96686.14
2019-06-09T17:22:13.249Z,96688.62
2019-06-09T17:24:41.552Z,96681.84
2019-06-09T17:27:07.375Z,96675.55
2019-06-09T17:29:33.943Z,96674.84
2019-06-09T17:32:01.056Z,96679.73
2019-06-09T17:34:28.086Z,96680.91
2019-06-09T17:36:53.948Z,96686.55
2019-06-09T17:39:22.342Z,96684.17
2019-06-09T17:41:47.480Z,96686.17
2019-06-09T17:44:15.569Z,96684.86
2019-06-09T17:46:41.533Z,96675.92
2019-06-09T17:49:07.352Z,96678.27
2019-06-09T17:51:35.795Z,96678.27
2019-06-09T17:54:00.884Z,96674.14
2019-06-09T17:56:26.672Z,96674.41
2019-06-09T17:58:52.770Z,96684.35
2019-06-09T18:01:20.681Z,96680.95
2019-06-09T18:03:46.570Z,96669.65
2019-06-09T18:06:13.873Z,96667.02
2019-06-09T18:08:41.115Z,96665.81
2019-06-09T18:11:07.216Z,96663.26
2019-06-09T18:13:35.496Z,96658.20
2019-06-09T18:16:04.062Z,96664.16
2019-06-09T18:18:31.604Z,96658.80
2019-06-09T18:20:56.746Z,96658.80
2019-06-09T18:23:22.544Z,96665.06
2019-06-09T18:25:48.358Z,96667.98
2019-06-09T18:28:14.466Z,96665.27
2019-06-09T18:30:53.189Z,96659.03
2019-06-09T18:33:11.295Z,96659.03
2019-06-09T18:35:37.819Z,96657.29
2019-06-09T18:38:05.154Z,96655.28
2019-06-09T18:40:35.485Z,96637.23
2019-06-09T18:43:01.800Z,96630.30
2019-06-09T18:45:36.776Z,96627.53
2019-06-09T18:48:03.701Z,96632.13
2019-06-09T18:50:29.697Z,96630.04
2019-06-09T18:52:55.809Z,96640.80
2019-06-09T18:55:21.615Z,96624.35
2019-06-09T18:57:47.441Z,96622.86
2019-06-09T19:00:13.627Z,96633.09
2019-06-09T19:02:42.242Z,96644.95
2019-06-09T19:05:07.519Z,96665.73
2019-06-09T19:07:35.242Z,96674.23
2019-06-09T19:10:01.019Z,96675.94
2019-06-09T19:12:27.098Z,96683.58
2019-06-09T19:15:08.202Z,96697.30
2019-06-09T19:17:21.824Z,96697.30
2019-06-09T19:19:47.980Z,96708.52
2019-06-09T19:22:13.766Z,96703.66
2019-06-09T19:24:39.581Z,96694.51
2019-06-09T19:27:05.365Z,96691.03
2019-06-09T19:29:32.289Z,96687.22
2019-06-09T19:31:58.887Z,96691.95
2019-06-09T19:34:24.952Z,96691.95
2019-06-09T19:36:50.764Z,96693.45
2019-06-09T19:39:16.574Z,96693.80
2019-06-09T19:41:45.710Z,96686.53
2019-06-09T19:44:12.145Z,96687.84
2019-06-09T19:46:41.204Z,96693.71
2019-06-09T19:49:06.077Z,96700.58
2019-06-09T19:51:32.161Z,96706.66
2019-06-09T19:53:57.964Z,96695.84
2019-06-09T19:56:23.800Z,96702.02
2019-06-09T19:58:50.911Z,96674.41
2019-06-09T20:01:17.021Z,96686.38
2019-06-09T20:03:44.675Z,96676.92
2019-06-09T20:06:10.912Z,96689.64
2019-06-09T20:08:37.038Z,96685.23
2019-06-09T20:11:03.806Z,96696.22
2019-06-09T20:13:31.107Z,96698.86
2019-06-09T20:16:01.226Z,96698.86
2019-06-09T20:18:27.189Z,96693.78
2019-06-09T20:20:53.292Z,96692.55
2019-06-09T20:23:21.888Z,96687.48
2019-06-09T20:25:48.428Z,96692.41
2019-06-09T20:28:14.282Z,96696.98
2019-06-09T20:30:41.518Z,96705.73
2019-06-09T20:33:08.089Z,96711.73
2019-06-09T20:35:33.874Z,96707.09
2019-06-09T20:38:01.454Z,96698.41
2019-06-09T20:40:35.041Z,96690.69
2019-06-09T20:42:55.157Z,96675.36
2019-06-09T20:45:21.967Z,96670.38
2019-06-09T20:47:48.410Z,96666.21
2019-06-09T20:50:15.470Z,96661.84
2019-06-09T20:52:43.515Z,96662.20
2019-06-09T20:55:10.692Z,96688.52
2019-06-09T20:57:36.544Z,96675.61
2019-06-09T21:00:04.488Z,96673.22
2019-06-09T21:02:31.262Z,96668.81
2019-06-09T21:04:57.134Z,96668.97
2019-06-09T21:07:23.053Z,96660.13
2019-06-09T21:09:50.704Z,96655.83
2019-06-09T21:12:16.635Z,96646.86
2019-06-09T21:14:43.485Z,96645.75
2019-06-09T21:17:10.882Z,96651.87
2019-06-09T21:19:36.794Z,96642.09
2019-06-09T21:22:02.720Z,96641.01
2019-06-09T21:24:30.547Z,96644.95
2019-06-09T21:26:57.704Z,96642.48
2019-06-09T21:29:23.808Z,96650.17
2019-06-09T21:31:52.687Z,96627.84
2019-06-09T21:34:17.355Z,96615.56
2019-06-09T21:36:45.090Z,96618.96
2019-06-09T21:39:11.209Z,96640.59
2019-06-09T21:41:37.096Z,96640.86
2019-06-09T21:44:03.830Z,96639.28
2019-06-09T21:46:35.702Z,96646.92
2019-06-09T21:49:02.235Z,96650.20
2019-06-09T21:51:26.500Z,96641.59
2019-06-09T21:53:54.014Z,96644.48
2019-06-09T21:56:21.529Z,96637.45
2019-06-09T21:58:47.448Z,96627.53
2019-06-09T22:01:13.553Z,96620.85
2019-06-09T22:03:43.290Z,96626.68
2019-06-09T22:06:11.562Z,96638.73
2019-06-09T22:08:36.794Z,96620.23
2019-06-09T22:11:02.728Z,96628.61
2019-06-09T22:13:28.502Z,96637.30
2019-06-09T22:15:56.265Z,96632.70
2019-06-09T22:18:22.261Z,96627.56
2019-06-09T22:20:53.036Z,96618.23
2019-06-09T22:23:17.027Z,96614.41
2019-06-09T22:25:44.022Z,96609.23
2019-06-09T22:28:11.834Z,96614.64
2019-06-09T22:30:41.994Z,96599.06
2019-06-09T22:33:07.788Z,96596.70
2019-06-09T22:35:33.865Z,96602.33
2019-06-09T22:38:01.690Z,96601.23
2019-06-09T22:40:27.605Z,96597.63
2019-06-09T22:42:54.474Z,96584.73
2019-06-09T22:45:21.530Z,96588.21
2019-06-09T22:47:53.326Z,96607.02
2019-06-09T22:50:15.468Z,96633.52
2019-06-09T22:52:41.456Z,96646.69
2019-06-09T22:55:08.140Z,96651.16
2019-06-09T22:57:33.983Z,96660.84
2019-06-09T23:00:01.333Z,96644.12
2019-06-09T23:02:32.148Z,96639.72
2019-06-09T23:04:57.684Z,96637.09
2019-06-09T23:07:23.861Z,96653.31
2019-06-09T23:09:52.242Z,96657.98
2019-06-09T23:12:20.552Z,96644.66
2019-06-09T23:14:46.433Z,96618.52
2019-06-09T23:17:21.850Z,96558.70
2019-06-09T23:19:41.820Z,96545.83
2019-06-09T23:22:07.927Z,96554.58
2019-06-09T23:24:34.038Z,96570.05
2019-06-09T23:27:02.492Z,96559.57
2019-06-09T23:29:27.816Z,96552.19
2019-06-09T23:31:54.244Z,96544.03
2019-06-09T23:34:21.388Z,96522.30
2019-06-09T23:36:47.615Z,96519.92
2019-06-09T23:39:15.002Z,96531.73
2019-06-09T23:41:40.813Z,96550.11
2019-06-09T23:44:11.758Z,96551.93
2019-06-09T23:46:37.073Z,96571.39
2019-06-09T23:49:04.758Z,96566.41
2019-06-09T23:51:31.020Z,96557.42
2019-06-09T23:54:01.670Z,96544.83
2019-06-09T23:56:27.578Z,96536.66
2019-06-09T23:58:54.953Z,96529.20
